Blum, Texas
Current Conditions -  °F | °C
As of 5:15 AM on Sunday 23 Nov 2014 (Local Time) from KCPT Reporting Station
Clear Clear  
Wind Chill: 52°   Ceiling: Unl
Heat Index: 52°   Visibility: 10mi
Dew Point: 52°   Wind: 6mph
Humidity: 100%   Direction: 170°S
Pressure: 29.62"   Gusts: NA
Location:  32.14°N, 97.4°W
Report Text: KCPT 231115Z AUTO 17005KT 10SM CLR 11/11 A2962 RMK AO2
Loading
Personal Weather Stations






























Interactive Weather Map New forecast layout! Learn more

10-Day Weather Forecast

Advertisements
Track Severe Weather on mobile